Terminal Aerodrome Forecast
Issued by NWS Rapid City, SD

Home | Current Version | Previous Version | Graphics & Text | Print | Product List | Glossary On
Versions: 1 2 3 4 5 6 7 8 9 10 11 12 13
000
FTUS43 KUNR 301120
TAFRAP
TAF
KRAP 301120Z 3012/3112 14007KT P6SM SCT250
      TEMPO 3012/3016 BKN010
     FM301600 15015KT P6SM BKN050=

USA.gov is the U.S. government's official web portal to all federal, state and local government web resources and services.